sensor_id;sensor_type;location;lat;lon;timestamp;P1;durP1;ratioP1;P2;durP2;ratioP2
9128;SDS011;4599;50.906;6.786;2023-10-19T00:03:38;9.27;;;7.20;;
9128;SDS011;4599;50.906;6.786;2023-10-19T00:07:42;10.80;;;9.00;;
9128;SDS011;4599;50.906;6.786;2023-10-19T00:11:44;9.80;;;8.43;;
9128;SDS011;4599;50.906;6.786;2023-10-19T00:15:45;9.40;;;8.13;;
9128;SDS011;4599;50.906;6.786;2023-10-19T00:19:47;11.03;;;8.87;;
9128;SDS011;4599;50.906;6.786;2023-10-19T00:23:52;10.57;;;9.30;;
9128;SDS011;4599;50.906;6.786;2023-10-19T00:27:54;10.57;;;9.37;;
9128;SDS011;4599;50.906;6.786;2023-10-19T00:31:58;11.93;;;9.57;;
9128;SDS011;4599;50.906;6.786;2023-10-19T00:36:00;12.73;;;9.37;;
9128;SDS011;4599;50.906;6.786;2023-10-19T00:40:04;11.73;;;9.30;;
9128;SDS011;4599;50.906;6.786;2023-10-19T00:44:07;12.30;;;9.97;;
9128;SDS011;4599;50.906;6.786;2023-10-19T00:48:08;13.43;;;10.33;;
9128;SDS011;4599;50.906;6.786;2023-10-19T00:52:10;10.70;;;9.47;;
9128;SDS011;4599;50.906;6.786;2023-10-19T00:56:13;12.53;;;9.47;;
9128;SDS011;4599;50.906;6.786;2023-10-19T01:00:16;11.50;;;10.23;;
9128;SDS011;4599;50.906;6.786;2023-10-19T01:04:18;13.67;;;10.57;;
9128;SDS011;4599;50.906;6.786;2023-10-19T01:08:21;14.70;;;10.73;;
9128;SDS011;4599;50.906;6.786;2023-10-19T01:12:24;11.13;;;10.03;;
9128;SDS011;4599;50.906;6.786;2023-10-19T01:16:25;12.33;;;10.23;;
9128;SDS011;4599;50.906;6.786;2023-10-19T01:20:28;12.57;;;10.23;;
9128;SDS011;4599;50.906;6.786;2023-10-19T01:24:32;12.43;;;10.33;;
9128;SDS011;4599;50.906;6.786;2023-10-19T01:28:34;13.10;;;9.97;;
9128;SDS011;4599;50.906;6.786;2023-10-19T01:32:37;13.77;;;9.40;;
9128;SDS011;4599;50.906;6.786;2023-10-19T01:36:40;12.00;;;9.20;;
9128;SDS011;4599;50.906;6.786;2023-10-19T01:40:42;10.60;;;9.53;;
9128;SDS011;4599;50.906;6.786;2023-10-19T01:44:44;11.03;;;9.20;;
9128;SDS011;4599;50.906;6.786;2023-10-19T01:48:46;10.83;;;9.47;;
9128;SDS011;4599;50.906;6.786;2023-10-19T01:52:47;11.43;;;9.80;;
9128;SDS011;4599;50.906;6.786;2023-10-19T01:56:51;12.10;;;9.93;;
9128;SDS011;4599;50.906;6.786;2023-10-19T02:00:53;11.27;;;9.80;;
9128;SDS011;4599;50.906;6.786;2023-10-19T02:04:55;11.40;;;9.60;;
9128;SDS011;4599;50.906;6.786;2023-10-19T02:08:57;12.83;;;9.90;;
9128;SDS011;4599;50.906;6.786;2023-10-19T02:13:01;12.63;;;9.90;;
9128;SDS011;4599;50.906;6.786;2023-10-19T02:17:04;16.20;;;10.77;;
9128;SDS011;4599;50.906;6.786;2023-10-19T02:21:09;11.70;;;9.93;;
9128;SDS011;4599;50.906;6.786;2023-10-19T02:25:11;12.03;;;10.30;;
9128;SDS011;4599;50.906;6.786;2023-10-19T02:29:15;12.60;;;10.57;;
9128;SDS011;4599;50.906;6.786;2023-10-19T02:33:17;14.73;;;10.17;;
9128;SDS011;4599;50.906;6.786;2023-10-19T02:37:18;12.90;;;10.63;;
9128;SDS011;4599;50.906;6.786;2023-10-19T02:41:23;18.43;;;11.70;;
9128;SDS011;4599;50.906;6.786;2023-10-19T02:45:27;14.17;;;11.07;;
9128;SDS011;4599;50.906;6.786;2023-10-19T02:49:29;15.53;;;11.73;;
9128;SDS011;4599;50.906;6.786;2023-10-19T02:53:32;15.10;;;10.73;;
9128;SDS011;4599;50.906;6.786;2023-10-19T02:57:34;12.03;;;9.93;;
9128;SDS011;4599;50.906;6.786;2023-10-19T03:01:37;15.03;;;10.27;;
9128;SDS011;4599;50.906;6.786;2023-10-19T03:05:38;12.30;;;10.00;;
9128;SDS011;4599;50.906;6.786;2023-10-19T03:09:40;11.17;;;9.97;;
9128;SDS011;4599;50.906;6.786;2023-10-19T03:13:42;12.37;;;10.30;;
9128;SDS011;4599;50.906;6.786;2023-10-19T03:17:45;12.13;;;10.67;;
9128;SDS011;4599;50.906;6.786;2023-10-19T03:21:47;11.23;;;9.77;;
9128;SDS011;4599;50.906;6.786;2023-10-19T03:25:53;11.60;;;10.40;;
9128;SDS011;4599;50.906;6.786;2023-10-19T03:29:56;13.43;;;10.40;;
9128;SDS011;4599;50.906;6.786;2023-10-19T03:33:59;13.20;;;11.17;;
9128;SDS011;4599;50.906;6.786;2023-10-19T03:38:00;13.27;;;10.90;;
9128;SDS011;4599;50.906;6.786;2023-10-19T03:42:02;15.67;;;11.03;;
9128;SDS011;4599;50.906;6.786;2023-10-19T03:46:04;13.00;;;10.97;;
9128;SDS011;4599;50.906;6.786;2023-10-19T03:50:08;13.40;;;10.70;;
9128;SDS011;4599;50.906;6.786;2023-10-19T03:54:10;11.90;;;10.67;;
9128;SDS011;4599;50.906;6.786;2023-10-19T03:58:12;15.60;;;10.33;;
9128;SDS011;4599;50.906;6.786;2023-10-19T04:02:16;12.20;;;9.60;;
9128;SDS011;4599;50.906;6.786;2023-10-19T04:06:24;12.13;;;9.60;;
9128;SDS011;4599;50.906;6.786;2023-10-19T04:10:25;10.87;;;9.37;;
9128;SDS011;4599;50.906;6.786;2023-10-19T04:14:27;12.73;;;9.20;;
9128;SDS011;4599;50.906;6.786;2023-10-19T04:18:28;12.23;;;8.67;;
9128;SDS011;4599;50.906;6.786;2023-10-19T04:22:31;8.93;;;8.00;;
9128;SDS011;4599;50.906;6.786;2023-10-19T04:26:34;10.97;;;8.30;;
9128;SDS011;4599;50.906;6.786;2023-10-19T04:30:36;10.27;;;8.57;;
9128;SDS011;4599;50.906;6.786;2023-10-19T04:34:39;9.87;;;8.30;;
9128;SDS011;4599;50.906;6.786;2023-10-19T04:38:43;9.70;;;8.40;;
9128;SDS011;4599;50.906;6.786;2023-10-19T04:42:44;9.47;;;8.17;;
9128;SDS011;4599;50.906;6.786;2023-10-19T04:46:48;10.17;;;8.03;;
9128;SDS011;4599;50.906;6.786;2023-10-19T04:50:50;8.23;;;7.30;;
9128;SDS011;4599;50.906;6.786;2023-10-19T04:54:53;10.67;;;7.30;;
9128;SDS011;4599;50.906;6.786;2023-10-19T04:58:54;12.70;;;7.27;;
9128;SDS011;4599;50.906;6.786;2023-10-19T05:02:56;10.43;;;7.67;;
9128;SDS011;4599;50.906;6.786;2023-10-19T05:06:58;10.57;;;6.80;;
9128;SDS011;4599;50.906;6.786;2023-10-19T05:11:02;12.77;;;7.47;;
9128;SDS011;4599;50.906;6.786;2023-10-19T05:15:04;7.87;;;6.63;;
9128;SDS011;4599;50.906;6.786;2023-10-19T05:19:06;13.90;;;5.67;;
9128;SDS011;4599;50.906;6.786;2023-10-19T05:23:10;11.37;;;6.13;;
9128;SDS011;4599;50.906;6.786;2023-10-19T05:27:13;12.60;;;6.20;;
9128;SDS011;4599;50.906;6.786;2023-10-19T05:31:17;12.77;;;5.73;;
9128;SDS011;4599;50.906;6.786;2023-10-19T05:35:20;17.10;;;6.97;;
9128;SDS011;4599;50.906;6.786;2023-10-19T05:39:24;12.67;;;6.30;;
9128;SDS011;4599;50.906;6.786;2023-10-19T05:43:29;14.10;;;6.73;;
9128;SDS011;4599;50.906;6.786;2023-10-19T05:47:30;11.63;;;6.50;;
9128;SDS011;4599;50.906;6.786;2023-10-19T05:51:32;17.97;;;6.40;;
9128;SDS011;4599;50.906;6.786;2023-10-19T05:55:34;9.90;;;6.27;;
9128;SDS011;4599;50.906;6.786;2023-10-19T05:59:37;12.73;;;5.90;;
9128;SDS011;4599;50.906;6.786;2023-10-19T06:03:38;11.10;;;5.20;;
9128;SDS011;4599;50.906;6.786;2023-10-19T06:07:40;11.47;;;5.63;;
9128;SDS011;4599;50.906;6.786;2023-10-19T06:11:42;9.37;;;5.63;;
9128;SDS011;4599;50.906;6.786;2023-10-19T06:15:45;10.70;;;5.60;;
9128;SDS011;4599;50.906;6.786;2023-10-19T06:19:48;9.20;;;4.77;;
9128;SDS011;4599;50.906;6.786;2023-10-19T06:23:49;7.87;;;4.40;;
9128;SDS011;4599;50.906;6.786;2023-10-19T06:27:52;8.10;;;4.40;;
9128;SDS011;4599;50.906;6.786;2023-10-19T06:31:56;9.50;;;5.10;;
9128;SDS011;4599;50.906;6.786;2023-10-19T06:35:58;11.63;;;4.87;;
9128;SDS011;4599;50.906;6.786;2023-10-19T06:40:00;8.57;;;5.40;;
9128;SDS011;4599;50.906;6.786;2023-10-19T06:44:04;10.13;;;5.10;;
9128;SDS011;4599;50.906;6.786;2023-10-19T06:48:08;10.90;;;6.10;;
9128;SDS011;4599;50.906;6.786;2023-10-19T06:52:10;8.13;;;6.03;;
9128;SDS011;4599;50.906;6.786;2023-10-19T06:56:12;7.13;;;5.17;;
9128;SDS011;4599;50.906;6.786;2023-10-19T07:00:15;8.47;;;5.20;;
9128;SDS011;4599;50.906;6.786;2023-10-19T07:04:20;6.87;;;4.73;;
9128;SDS011;4599;50.906;6.786;2023-10-19T07:08:22;6.67;;;5.10;;
9128;SDS011;4599;50.906;6.786;2023-10-19T07:12:24;7.40;;;4.70;;
9128;SDS011;4599;50.906;6.786;2023-10-19T07:16:26;8.83;;;5.47;;
9128;SDS011;4599;50.906;6.786;2023-10-19T07:20:30;5.90;;;4.80;;
9128;SDS011;4599;50.906;6.786;2023-10-19T07:24:32;11.30;;;5.50;;
9128;SDS011;4599;50.906;6.786;2023-10-19T07:28:34;6.57;;;4.60;;
9128;SDS011;4599;50.906;6.786;2023-10-19T07:32:39;8.40;;;4.43;;
9128;SDS011;4599;50.906;6.786;2023-10-19T07:36:43;5.70;;;4.60;;
9128;SDS011;4599;50.906;6.786;2023-10-19T07:40:45;6.50;;;4.50;;
9128;SDS011;4599;50.906;6.786;2023-10-19T07:44:47;10.60;;;4.53;;
9128;SDS011;4599;50.906;6.786;2023-10-19T07:48:49;10.67;;;4.20;;
9128;SDS011;4599;50.906;6.786;2023-10-19T07:52:52;5.07;;;3.40;;
9128;SDS011;4599;50.906;6.786;2023-10-19T07:56:55;6.30;;;2.97;;
9128;SDS011;4599;50.906;6.786;2023-10-19T08:00:56;7.57;;;2.63;;
9128;SDS011;4599;50.906;6.786;2023-10-19T08:04:58;7.60;;;2.90;;
9128;SDS011;4599;50.906;6.786;2023-10-19T08:09:01;9.20;;;3.40;;
9128;SDS011;4599;50.906;6.786;2023-10-19T08:13:03;11.77;;;5.23;;
9128;SDS011;4599;50.906;6.786;2023-10-19T08:17:05;10.77;;;5.93;;
9128;SDS011;4599;50.906;6.786;2023-10-19T08:21:07;10.60;;;5.13;;
9128;SDS011;4599;50.906;6.786;2023-10-19T08:25:10;7.97;;;5.30;;
9128;SDS011;4599;50.906;6.786;2023-10-19T08:29:12;6.83;;;4.73;;
9128;SDS011;4599;50.906;6.786;2023-10-19T08:33:14;7.23;;;4.40;;
9128;SDS011;4599;50.906;6.786;2023-10-19T08:37:15;8.13;;;4.67;;
9128;SDS011;4599;50.906;6.786;2023-10-19T08:41:19;5.40;;;3.57;;
9128;SDS011;4599;50.906;6.786;2023-10-19T08:45:21;5.77;;;3.67;;
9128;SDS011;4599;50.906;6.786;2023-10-19T08:49:23;12.20;;;3.87;;
9128;SDS011;4599;50.906;6.786;2023-10-19T08:53:25;4.70;;;3.50;;
9128;SDS011;4599;50.906;6.786;2023-10-19T08:57:31;6.33;;;3.40;;
9128;SDS011;4599;50.906;6.786;2023-10-19T09:01:33;6.97;;;3.10;;
9128;SDS011;4599;50.906;6.786;2023-10-19T09:05:37;10.83;;;3.47;;
9128;SDS011;4599;50.906;6.786;2023-10-19T09:09:42;8.27;;;3.00;;
9128;SDS011;4599;50.906;6.786;2023-10-19T09:13:46;6.70;;;2.40;;
9128;SDS011;4599;50.906;6.786;2023-10-19T09:17:49;8.83;;;2.83;;
9128;SDS011;4599;50.906;6.786;2023-10-19T09:21:51;9.17;;;2.60;;
9128;SDS011;4599;50.906;6.786;2023-10-19T09:25:52;8.40;;;2.37;;
9128;SDS011;4599;50.906;6.786;2023-10-19T09:29:57;6.87;;;2.10;;
9128;SDS011;4599;50.906;6.786;2023-10-19T09:33:58;6.17;;;2.90;;
9128;SDS011;4599;50.906;6.786;2023-10-19T09:38:01;5.10;;;2.20;;
9128;SDS011;4599;50.906;6.786;2023-10-19T09:42:05;8.17;;;3.07;;
9128;SDS011;4599;50.906;6.786;2023-10-19T09:46:11;10.40;;;2.50;;
9128;SDS011;4599;50.906;6.786;2023-10-19T09:50:13;7.73;;;2.63;;
9128;SDS011;4599;50.906;6.786;2023-10-19T09:54:20;8.43;;;2.50;;
9128;SDS011;4599;50.906;6.786;2023-10-19T09:58:31;11.10;;;3.10;;
9128;SDS011;4599;50.906;6.786;2023-10-19T10:02:38;9.20;;;2.70;;
9128;SDS011;4599;50.906;6.786;2023-10-19T10:11:00;7.47;;;2.50;;
9128;SDS011;4599;50.906;6.786;2023-10-19T10:15:15;8.67;;;2.67;;
9128;SDS011;4599;50.906;6.786;2023-10-19T10:19:21;12.07;;;2.47;;
9128;SDS011;4599;50.906;6.786;2023-10-19T10:23:23;7.27;;;1.90;;
9128;SDS011;4599;50.906;6.786;2023-10-19T10:27:25;9.90;;;2.23;;
9128;SDS011;4599;50.906;6.786;2023-10-19T10:31:27;9.67;;;2.23;;
9128;SDS011;4599;50.906;6.786;2023-10-19T10:39:58;10.30;;;2.67;;
9128;SDS011;4599;50.906;6.786;2023-10-19T10:44:01;10.17;;;2.60;;
9128;SDS011;4599;50.906;6.786;2023-10-19T10:48:04;9.23;;;2.63;;
9128;SDS011;4599;50.906;6.786;2023-10-19T10:52:15;10.97;;;2.40;;
9128;SDS011;4599;50.906;6.786;2023-10-19T10:56:24;9.67;;;2.60;;
9128;SDS011;4599;50.906;6.786;2023-10-19T11:00:26;6.20;;;2.20;;
9128;SDS011;4599;50.906;6.786;2023-10-19T11:04:28;6.50;;;2.17;;
9128;SDS011;4599;50.906;6.786;2023-10-19T11:08:31;10.53;;;2.30;;
9128;SDS011;4599;50.906;6.786;2023-10-19T11:12:32;7.73;;;2.10;;
9128;SDS011;4599;50.906;6.786;2023-10-19T11:16:37;7.70;;;2.00;;
9128;SDS011;4599;50.906;6.786;2023-10-19T11:20:39;8.00;;;1.97;;
9128;SDS011;4599;50.906;6.786;2023-10-19T11:24:42;7.77;;;2.23;;
9128;SDS011;4599;50.906;6.786;2023-10-19T11:28:43;6.70;;;2.00;;
9128;SDS011;4599;50.906;6.786;2023-10-19T11:32:47;10.33;;;2.20;;
9128;SDS011;4599;50.906;6.786;2023-10-19T11:36:52;8.47;;;2.17;;
9128;SDS011;4599;50.906;6.786;2023-10-19T11:40:55;7.97;;;2.07;;
9128;SDS011;4599;50.906;6.786;2023-10-19T11:44:56;8.17;;;1.97;;
9128;SDS011;4599;50.906;6.786;2023-10-19T11:48:59;8.37;;;2.30;;
9128;SDS011;4599;50.906;6.786;2023-10-19T11:53:01;8.73;;;2.73;;
9128;SDS011;4599;50.906;6.786;2023-10-19T11:57:05;10.57;;;2.70;;
9128;SDS011;4599;50.906;6.786;2023-10-19T12:01:09;8.77;;;2.33;;
9128;SDS011;4599;50.906;6.786;2023-10-19T12:05:11;10.07;;;1.93;;
9128;SDS011;4599;50.906;6.786;2023-10-19T12:09:18;7.67;;;2.03;;
9128;SDS011;4599;50.906;6.786;2023-10-19T12:13:21;6.50;;;1.67;;
9128;SDS011;4599;50.906;6.786;2023-10-19T12:17:22;6.53;;;1.87;;
9128;SDS011;4599;50.906;6.786;2023-10-19T12:21:24;8.17;;;2.60;;
9128;SDS011;4599;50.906;6.786;2023-10-19T12:25:25;15.03;;;2.97;;
9128;SDS011;4599;50.906;6.786;2023-10-19T12:29:29;8.90;;;2.00;;
9128;SDS011;4599;50.906;6.786;2023-10-19T12:33:31;8.80;;;2.10;;
9128;SDS011;4599;50.906;6.786;2023-10-19T12:37:33;7.77;;;2.20;;
9128;SDS011;4599;50.906;6.786;2023-10-19T12:41:35;7.30;;;2.00;;
9128;SDS011;4599;50.906;6.786;2023-10-19T12:45:40;8.30;;;2.10;;
9128;SDS011;4599;50.906;6.786;2023-10-19T12:49:42;7.57;;;2.63;;
9128;SDS011;4599;50.906;6.786;2023-10-19T12:53:44;11.03;;;2.60;;
9128;SDS011;4599;50.906;6.786;2023-10-19T12:57:46;13.30;;;4.10;;
9128;SDS011;4599;50.906;6.786;2023-10-19T13:01:49;9.03;;;2.80;;
9128;SDS011;4599;50.906;6.786;2023-10-19T13:05:50;8.60;;;3.07;;
9128;SDS011;4599;50.906;6.786;2023-10-19T13:09:52;10.47;;;2.77;;
9128;SDS011;4599;50.906;6.786;2023-10-19T13:13:56;8.60;;;2.60;;
9128;SDS011;4599;50.906;6.786;2023-10-19T13:17:59;9.90;;;3.37;;
9128;SDS011;4599;50.906;6.786;2023-10-19T13:22:01;7.30;;;2.37;;
9128;SDS011;4599;50.906;6.786;2023-10-19T13:26:03;11.10;;;2.30;;
9128;SDS011;4599;50.906;6.786;2023-10-19T13:30:07;7.03;;;2.70;;
9128;SDS011;4599;50.906;6.786;2023-10-19T13:34:11;10.57;;;2.80;;
9128;SDS011;4599;50.906;6.786;2023-10-19T13:38:14;9.83;;;2.60;;
9128;SDS011;4599;50.906;6.786;2023-10-19T13:42:18;7.87;;;2.30;;
9128;SDS011;4599;50.906;6.786;2023-10-19T13:46:19;8.67;;;2.33;;
9128;SDS011;4599;50.906;6.786;2023-10-19T13:50:23;7.60;;;2.27;;
9128;SDS011;4599;50.906;6.786;2023-10-19T13:54:25;11.83;;;2.67;;
9128;SDS011;4599;50.906;6.786;2023-10-19T13:58:27;8.73;;;4.13;;
9128;SDS011;4599;50.906;6.786;2023-10-19T14:02:29;10.07;;;5.67;;
9128;SDS011;4599;50.906;6.786;2023-10-19T14:06:33;6.63;;;3.20;;
9128;SDS011;4599;50.906;6.786;2023-10-19T14:10:37;8.50;;;3.27;;
9128;SDS011;4599;50.906;6.786;2023-10-19T14:14:39;8.53;;;2.60;;
9128;SDS011;4599;50.906;6.786;2023-10-19T14:18:41;10.13;;;3.27;;
9128;SDS011;4599;50.906;6.786;2023-10-19T14:22:48;7.07;;;3.03;;
9128;SDS011;4599;50.906;6.786;2023-10-19T14:26:50;7.53;;;3.13;;
9128;SDS011;4599;50.906;6.786;2023-10-19T14:30:52;9.23;;;3.37;;
9128;SDS011;4599;50.906;6.786;2023-10-19T14:34:55;8.83;;;3.73;;
9128;SDS011;4599;50.906;6.786;2023-10-19T14:39:00;9.00;;;4.10;;
9128;SDS011;4599;50.906;6.786;2023-10-19T14:43:01;11.60;;;3.80;;
9128;SDS011;4599;50.906;6.786;2023-10-19T14:47:03;9.43;;;4.07;;
9128;SDS011;4599;50.906;6.786;2023-10-19T14:51:05;13.07;;;4.77;;
9128;SDS011;4599;50.906;6.786;2023-10-19T14:55:09;11.33;;;5.23;;
9128;SDS011;4599;50.906;6.786;2023-10-19T14:59:11;12.03;;;5.10;;
9128;SDS011;4599;50.906;6.786;2023-10-19T15:03:13;15.43;;;5.67;;
9128;SDS011;4599;50.906;6.786;2023-10-19T15:07:15;11.87;;;4.83;;
9128;SDS011;4599;50.906;6.786;2023-10-19T15:11:18;16.10;;;4.67;;
9128;SDS011;4599;50.906;6.786;2023-10-19T15:15:20;13.47;;;5.30;;
9128;SDS011;4599;50.906;6.786;2023-10-19T15:19:26;10.00;;;5.20;;
9128;SDS011;4599;50.906;6.786;2023-10-19T15:23:27;12.50;;;5.10;;
9128;SDS011;4599;50.906;6.786;2023-10-19T15:27:31;9.60;;;5.67;;
9128;SDS011;4599;50.906;6.786;2023-10-19T15:31:33;9.97;;;5.73;;
9128;SDS011;4599;50.906;6.786;2023-10-19T15:35:35;13.43;;;5.40;;
9128;SDS011;4599;50.906;6.786;2023-10-19T15:39:37;11.10;;;5.97;;
9128;SDS011;4599;50.906;6.786;2023-10-19T15:43:40;9.93;;;5.77;;
9128;SDS011;4599;50.906;6.786;2023-10-19T15:47:42;9.67;;;6.20;;
9128;SDS011;4599;50.906;6.786;2023-10-19T15:51:43;11.70;;;5.67;;
9128;SDS011;4599;50.906;6.786;2023-10-19T15:55:45;12.30;;;6.30;;
9128;SDS011;4599;50.906;6.786;2023-10-19T15:59:49;13.03;;;6.10;;
9128;SDS011;4599;50.906;6.786;2023-10-19T16:03:51;10.07;;;5.60;;
9128;SDS011;4599;50.906;6.786;2023-10-19T16:07:53;10.70;;;5.63;;
9128;SDS011;4599;50.906;6.786;2023-10-19T16:11:55;8.23;;;5.67;;
9128;SDS011;4599;50.906;6.786;2023-10-19T16:16:01;12.50;;;6.33;;
9128;SDS011;4599;50.906;6.786;2023-10-19T16:20:04;9.97;;;5.93;;
9128;SDS011;4599;50.906;6.786;2023-10-19T16:24:06;13.77;;;6.20;;
9128;SDS011;4599;50.906;6.786;2023-10-19T16:28:10;8.83;;;6.53;;
9128;SDS011;4599;50.906;6.786;2023-10-19T16:32:14;13.93;;;6.57;;
9128;SDS011;4599;50.906;6.786;2023-10-19T16:36:16;9.20;;;6.17;;
9128;SDS011;4599;50.906;6.786;2023-10-19T16:40:18;8.63;;;6.67;;
9128;SDS011;4599;50.906;6.786;2023-10-19T16:44:19;9.47;;;5.97;;
9128;SDS011;4599;50.906;6.786;2023-10-19T16:48:23;10.43;;;5.97;;
9128;SDS011;4599;50.906;6.786;2023-10-19T16:52:24;7.43;;;5.87;;
9128;SDS011;4599;50.906;6.786;2023-10-19T16:56:26;10.67;;;6.77;;
9128;SDS011;4599;50.906;6.786;2023-10-19T17:00:28;10.73;;;6.40;;
9128;SDS011;4599;50.906;6.786;2023-10-19T17:04:30;13.27;;;7.07;;
9128;SDS011;4599;50.906;6.786;2023-10-19T17:08:33;9.63;;;7.90;;
9128;SDS011;4599;50.906;6.786;2023-10-19T17:12:34;11.27;;;7.90;;
9128;SDS011;4599;50.906;6.786;2023-10-19T17:16:37;11.80;;;7.23;;
9128;SDS011;4599;50.906;6.786;2023-10-19T17:20:42;9.80;;;7.23;;
9128;SDS011;4599;50.906;6.786;2023-10-19T17:24:44;10.50;;;7.17;;
9128;SDS011;4599;50.906;6.786;2023-10-19T17:28:46;8.40;;;6.97;;
9128;SDS011;4599;50.906;6.786;2023-10-19T17:32:48;9.20;;;6.60;;
9128;SDS011;4599;50.906;6.786;2023-10-19T17:36:55;10.73;;;6.93;;
9128;SDS011;4599;50.906;6.786;2023-10-19T17:40:56;10.63;;;6.30;;
9128;SDS011;4599;50.906;6.786;2023-10-19T17:44:58;9.13;;;6.17;;
9128;SDS011;4599;50.906;6.786;2023-10-19T17:49:03;7.77;;;5.90;;
9128;SDS011;4599;50.906;6.786;2023-10-19T17:53:06;9.73;;;6.77;;
9128;SDS011;4599;50.906;6.786;2023-10-19T17:57:08;9.67;;;5.87;;
9128;SDS011;4599;50.906;6.786;2023-10-19T18:01:10;8.33;;;6.97;;
9128;SDS011;4599;50.906;6.786;2023-10-19T18:05:12;8.00;;;5.97;;
9128;SDS011;4599;50.906;6.786;2023-10-19T18:09:16;6.60;;;5.90;;
9128;SDS011;4599;50.906;6.786;2023-10-19T18:13:18;7.43;;;6.53;;
9128;SDS011;4599;50.906;6.786;2023-10-19T18:17:20;10.30;;;7.10;;
9128;SDS011;4599;50.906;6.786;2023-10-19T18:21:22;8.90;;;6.93;;
9128;SDS011;4599;50.906;6.786;2023-10-19T18:25:25;11.40;;;7.27;;
9128;SDS011;4599;50.906;6.786;2023-10-19T18:29:27;13.27;;;7.80;;
9128;SDS011;4599;50.906;6.786;2023-10-19T18:33:29;11.17;;;7.60;;
9128;SDS011;4599;50.906;6.786;2023-10-19T18:37:31;8.97;;;7.97;;
9128;SDS011;4599;50.906;6.786;2023-10-19T18:41:37;8.53;;;7.00;;
9128;SDS011;4599;50.906;6.786;2023-10-19T18:45:39;10.97;;;8.67;;
9128;SDS011;4599;50.906;6.786;2023-10-19T18:49:40;10.53;;;8.93;;
9128;SDS011;4599;50.906;6.786;2023-10-19T18:53:42;13.53;;;9.87;;
9128;SDS011;4599;50.906;6.786;2023-10-19T18:57:48;13.13;;;9.93;;
9128;SDS011;4599;50.906;6.786;2023-10-19T19:01:50;11.83;;;9.17;;
9128;SDS011;4599;50.906;6.786;2023-10-19T19:05:54;11.77;;;8.77;;
9128;SDS011;4599;50.906;6.786;2023-10-19T19:09:56;11.43;;;8.67;;
9128;SDS011;4599;50.906;6.786;2023-10-19T19:14:00;10.87;;;8.10;;
9128;SDS011;4599;50.906;6.786;2023-10-19T19:18:01;10.83;;;7.87;;
9128;SDS011;4599;50.906;6.786;2023-10-19T19:22:05;13.43;;;8.93;;
9128;SDS011;4599;50.906;6.786;2023-10-19T19:26:08;11.63;;;9.43;;
9128;SDS011;4599;50.906;6.786;2023-10-19T19:30:12;9.73;;;8.73;;
9128;SDS011;4599;50.906;6.786;2023-10-19T19:34:13;10.63;;;8.50;;
9128;SDS011;4599;50.906;6.786;2023-10-19T19:38:15;10.43;;;8.63;;
9128;SDS011;4599;50.906;6.786;2023-10-19T19:42:17;10.50;;;8.43;;
9128;SDS011;4599;50.906;6.786;2023-10-19T19:46:20;13.47;;;8.30;;
9128;SDS011;4599;50.906;6.786;2023-10-19T19:50:22;11.10;;;8.43;;
9128;SDS011;4599;50.906;6.786;2023-10-19T19:54:24;8.53;;;7.33;;
9128;SDS011;4599;50.906;6.786;2023-10-19T19:58:25;8.83;;;7.80;;
9128;SDS011;4599;50.906;6.786;2023-10-19T20:02:29;8.27;;;7.43;;
9128;SDS011;4599;50.906;6.786;2023-10-19T20:06:32;12.37;;;7.60;;
9128;SDS011;4599;50.906;6.786;2023-10-19T20:10:34;9.60;;;7.13;;
9128;SDS011;4599;50.906;6.786;2023-10-19T20:14:36;8.90;;;7.80;;
9128;SDS011;4599;50.906;6.786;2023-10-19T20:18:39;9.30;;;7.20;;
9128;SDS011;4599;50.906;6.786;2023-10-19T20:22:41;7.97;;;6.63;;
9128;SDS011;4599;50.906;6.786;2023-10-19T20:26:43;6.93;;;6.23;;
9128;SDS011;4599;50.906;6.786;2023-10-19T20:30:47;8.13;;;6.77;;
9128;SDS011;4599;50.906;6.786;2023-10-19T20:34:50;8.07;;;6.57;;
9128;SDS011;4599;50.906;6.786;2023-10-19T20:38:52;7.17;;;6.10;;
9128;SDS011;4599;50.906;6.786;2023-10-19T20:42:54;6.90;;;5.87;;
9128;SDS011;4599;50.906;6.786;2023-10-19T20:46:56;8.23;;;5.27;;
9128;SDS011;4599;50.906;6.786;2023-10-19T20:50:59;6.87;;;5.43;;
9128;SDS011;4599;50.906;6.786;2023-10-19T20:55:01;8.67;;;6.20;;
9128;SDS011;4599;50.906;6.786;2023-10-19T20:59:03;11.53;;;7.53;;
9128;SDS011;4599;50.906;6.786;2023-10-19T21:03:05;7.90;;;6.97;;
9128;SDS011;4599;50.906;6.786;2023-10-19T21:07:08;9.60;;;7.97;;
9128;SDS011;4599;50.906;6.786;2023-10-19T21:11:14;10.70;;;8.27;;
9128;SDS011;4599;50.906;6.786;2023-10-19T21:15:16;9.93;;;8.33;;
9128;SDS011;4599;50.906;6.786;2023-10-19T21:19:18;11.23;;;9.60;;
9128;SDS011;4599;50.906;6.786;2023-10-19T21:23:38;10.23;;;9.13;;
9128;SDS011;4599;50.906;6.786;2023-10-19T21:27:40;12.67;;;10.23;;
9128;SDS011;4599;50.906;6.786;2023-10-19T21:31:42;12.60;;;10.93;;
9128;SDS011;4599;50.906;6.786;2023-10-19T21:35:44;13.33;;;11.13;;
9128;SDS011;4599;50.906;6.786;2023-10-19T21:39:47;12.37;;;11.00;;
9128;SDS011;4599;50.906;6.786;2023-10-19T21:43:49;13.07;;;11.27;;
9128;SDS011;4599;50.906;6.786;2023-10-19T21:47:51;12.53;;;11.23;;
9128;SDS011;4599;50.906;6.786;2023-10-19T21:51:52;13.63;;;11.53;;
9128;SDS011;4599;50.906;6.786;2023-10-19T21:55:56;13.30;;;11.13;;
9128;SDS011;4599;50.906;6.786;2023-10-19T21:59:57;13.20;;;11.77;;
9128;SDS011;4599;50.906;6.786;2023-10-19T22:03:59;14.10;;;11.77;;
9128;SDS011;4599;50.906;6.786;2023-10-19T22:08:01;16.43;;;13.00;;
9128;SDS011;4599;50.906;6.786;2023-10-19T22:12:04;14.87;;;12.40;;
9128;SDS011;4599;50.906;6.786;2023-10-19T22:16:06;14.60;;;12.37;;
9128;SDS011;4599;50.906;6.786;2023-10-19T22:20:08;16.13;;;12.60;;
9128;SDS011;4599;50.906;6.786;2023-10-19T22:24:10;13.27;;;11.77;;
9128;SDS011;4599;50.906;6.786;2023-10-19T22:28:13;14.47;;;12.50;;
9128;SDS011;4599;50.906;6.786;2023-10-19T22:32:15;14.93;;;12.60;;
9128;SDS011;4599;50.906;6.786;2023-10-19T22:36:20;16.83;;;12.47;;
9128;SDS011;4599;50.906;6.786;2023-10-19T22:40:23;15.30;;;12.53;;
9128;SDS011;4599;50.906;6.786;2023-10-19T22:44:26;14.00;;;12.50;;
9128;SDS011;4599;50.906;6.786;2023-10-19T22:48:28;15.63;;;12.53;;
9128;SDS011;4599;50.906;6.786;2023-10-19T22:52:29;13.60;;;12.13;;
9128;SDS011;4599;50.906;6.786;2023-10-19T22:56:31;14.03;;;11.70;;
9128;SDS011;4599;50.906;6.786;2023-10-19T23:00:34;14.90;;;11.73;;
9128;SDS011;4599;50.906;6.786;2023-10-19T23:04:39;17.93;;;12.30;;
9128;SDS011;4599;50.906;6.786;2023-10-19T23:08:42;12.97;;;11.30;;
9128;SDS011;4599;50.906;6.786;2023-10-19T23:12:44;14.03;;;10.00;;
9128;SDS011;4599;50.906;6.786;2023-10-19T23:16:47;18.03;;;11.50;;
9128;SDS011;4599;50.906;6.786;2023-10-19T23:20:48;12.77;;;11.47;;
9128;SDS011;4599;50.906;6.786;2023-10-19T23:24:50;17.23;;;11.40;;
9128;SDS011;4599;50.906;6.786;2023-10-19T23:28:53;14.73;;;11.33;;
9128;SDS011;4599;50.906;6.786;2023-10-19T23:32:58;12.63;;;11.00;;
9128;SDS011;4599;50.906;6.786;2023-10-19T23:37:00;15.53;;;11.50;;
9128;SDS011;4599;50.906;6.786;2023-10-19T23:41:02;11.73;;;10.53;;
9128;SDS011;4599;50.906;6.786;2023-10-19T23:45:04;11.87;;;10.50;;
9128;SDS011;4599;50.906;6.786;2023-10-19T23:49:08;17.27;;;10.73;;
9128;SDS011;4599;50.906;6.786;2023-10-19T23:53:10;10.67;;;9.40;;
9128;SDS011;4599;50.906;6.786;2023-10-19T23:57:11;11.10;;;9.60;;
